createdAt,value
2023-04-15T00:01:19.297Z,15.60
2023-04-15T00:03:48.543Z,16.10
2023-04-15T00:06:16.652Z,15.82
2023-04-15T00:08:44.577Z,16.70
2023-04-15T00:11:13.775Z,16.10
2023-04-15T00:13:41.836Z,15.82
2023-04-15T00:16:10.828Z,17.27
2023-04-15T00:18:38.852Z,17.25
2023-04-15T00:21:07.026Z,17.95
2023-04-15T00:23:36.421Z,16.45
2023-04-15T00:26:04.391Z,18.17
2023-04-15T00:28:33.596Z,17.92
2023-04-15T00:31:01.569Z,19.10
2023-04-15T00:33:29.413Z,18.60
2023-04-15T00:35:57.614Z,18.75
2023-04-15T00:38:25.612Z,19.45
2023-04-15T00:40:55.129Z,18.80
2023-04-15T00:43:23.022Z,19.42
2023-04-15T00:45:54.389Z,17.98
2023-04-15T00:48:23.068Z,19.27
2023-04-15T00:50:50.933Z,20.17
2023-04-15T00:53:18.783Z,19.40
2023-04-15T00:55:46.678Z,19.42
2023-04-15T00:58:14.603Z,18.50
2023-04-15T01:00:43.891Z,19.55
2023-04-15T01:03:13.210Z,19.50
2023-04-15T01:05:41.308Z,18.95
2023-04-15T01:08:09.771Z,19.45
2023-04-15T01:10:37.978Z,20.25
2023-04-15T01:13:05.891Z,19.77
2023-04-15T01:15:34.509Z,20.10
2023-04-15T01:18:03.853Z,19.15
2023-04-15T01:20:33.141Z,19.88
2023-04-15T01:23:01.732Z,19.17
2023-04-15T01:25:34.752Z,19.80
2023-04-15T01:28:03.255Z,20.17
2023-04-15T01:30:35.463Z,19.67
2023-04-15T01:33:03.746Z,21.52
2023-04-15T01:35:32.190Z,20.50
2023-04-15T01:38:06.264Z,20.42
2023-04-15T01:40:35.730Z,21.30
2023-04-15T01:43:03.935Z,22.70
2023-04-15T01:45:31.770Z,20.83
2023-04-15T01:47:59.722Z,20.25
2023-04-15T01:50:28.280Z,22.05
2023-04-15T01:52:57.103Z,20.42
2023-04-15T01:55:25.480Z,20.98
2023-04-15T01:57:54.709Z,21.05
2023-04-15T02:00:23.237Z,20.88
2023-04-15T02:02:51.302Z,22.73
2023-04-15T02:05:19.162Z,20.48
2023-04-15T02:07:49.491Z,21.83
2023-04-15T02:10:17.535Z,20.60
2023-04-15T02:12:45.403Z,21.52
2023-04-15T02:15:14.791Z,21.75
2023-04-15T02:17:45.989Z,20.95
2023-04-15T02:20:16.775Z,21.45
2023-04-15T02:22:45.071Z,20.75
2023-04-15T02:25:12.999Z,20.90
2023-04-15T02:27:40.928Z,21.83
2023-04-15T02:30:09.527Z,20.45
2023-04-15T02:32:39.110Z,21.38
2023-04-15T02:35:08.749Z,22.17
2023-04-15T02:37:41.692Z,22.35
2023-04-15T02:40:12.241Z,21.45
2023-04-15T02:42:40.531Z,21.33
2023-04-15T02:45:12.252Z,21.05
2023-04-15T02:47:43.327Z,21.52
2023-04-15T02:50:13.321Z,21.67
2023-04-15T02:52:43.248Z,21.40
2023-04-15T02:55:12.612Z,20.33
2023-04-15T02:57:41.226Z,21.48
2023-04-15T03:00:12.061Z,22.23
2023-04-15T03:02:45.195Z,20.13
2023-04-15T03:05:14.448Z,20.50
2023-04-15T03:07:50.330Z,20.73
2023-04-15T03:10:18.803Z,20.63
2023-04-15T03:12:47.661Z,22.02
2023-04-15T03:15:19.296Z,21.00
2023-04-15T03:17:51.921Z,20.65
2023-04-15T03:20:20.367Z,20.63
2023-04-15T03:22:49.584Z,21.85
2023-04-15T03:25:17.662Z,22.35
2023-04-15T03:27:45.524Z,20.65
2023-04-15T03:30:14.939Z,20.90
2023-04-15T03:32:42.900Z,19.60
2023-04-15T03:35:12.457Z,19.63
2023-04-15T03:37:40.327Z,20.65
2023-04-15T03:40:09.775Z,20.98
2023-04-15T03:42:37.634Z,20.85
2023-04-15T03:45:06.786Z,20.40
2023-04-15T03:47:34.868Z,20.10
2023-04-15T03:50:02.659Z,20.33
2023-04-15T03:52:31.816Z,19.38
2023-04-15T03:54:59.613Z,20.27
2023-04-15T03:57:27.537Z,20.52
2023-04-15T03:59:55.346Z,20.23
2023-04-15T04:02:23.431Z,19.63
2023-04-15T04:04:51.837Z,19.38
2023-04-15T04:07:19.824Z,19.08
2023-04-15T04:09:48.999Z,18.83
2023-04-15T04:12:16.841Z,19.20
2023-04-15T04:14:44.656Z,18.95
2023-04-15T04:17:12.736Z,18.60
2023-04-15T04:19:40.949Z,18.25
2023-04-15T04:22:08.788Z,18.45
2023-04-15T04:24:36.653Z,17.60
2023-04-15T04:27:05.935Z,18.33
2023-04-15T04:29:33.776Z,18.45
2023-04-15T04:32:01.706Z,17.08
2023-04-15T04:34:29.607Z,17.55
2023-04-15T04:36:57.424Z,17.60
2023-04-15T04:39:25.298Z,17.50
2023-04-15T04:41:53.242Z,17.10
2023-04-15T04:44:22.413Z,17.70
2023-04-15T04:46:50.245Z,18.02
2023-04-15T04:49:18.075Z,17.90
2023-04-15T04:51:47.065Z,16.25
2023-04-15T04:54:14.900Z,17.30
2023-04-15T04:56:42.755Z,16.88
2023-04-15T04:59:10.615Z,17.35
2023-04-15T05:01:39.952Z,16.40
2023-04-15T05:04:08.192Z,16.63
2023-04-15T05:06:36.609Z,16.20
2023-04-15T05:09:04.557Z,17.05
2023-04-15T05:11:32.431Z,15.85
2023-04-15T05:14:02.233Z,15.55
2023-04-15T05:16:30.129Z,16.48
2023-04-15T05:18:59.549Z,16.83
2023-04-15T05:21:27.844Z,14.63
2023-04-15T05:23:55.701Z,16.35
2023-04-15T05:26:24.334Z,14.68
2023-04-15T05:28:52.281Z,15.02
2023-04-15T05:31:20.502Z,15.35
2023-04-15T05:33:48.419Z,15.50
2023-04-15T05:36:17.502Z,15.25
2023-04-15T05:38:45.342Z,15.18
2023-04-15T05:41:16.600Z,15.77
2023-04-15T05:43:46.466Z,14.30
2023-04-15T05:46:14.295Z,14.48
2023-04-15T05:48:42.162Z,14.40
2023-04-15T05:51:10.490Z,13.38
2023-04-15T05:53:41.192Z,12.38
2023-04-15T05:56:09.021Z,13.45
2023-04-15T05:58:36.843Z,13.45
2023-04-15T06:01:05.060Z,13.38
2023-04-15T06:03:33.638Z,11.98
2023-04-15T06:06:02.510Z,12.10
2023-04-15T06:08:30.355Z,12.02
2023-04-15T06:10:59.719Z,11.43
2023-04-15T06:13:27.550Z,12.40
2023-04-15T06:15:55.382Z,11.02
2023-04-15T06:18:23.253Z,11.25
2023-04-15T06:20:51.677Z,11.63
2023-04-15T06:23:19.473Z,11.05
2023-04-15T06:25:47.288Z,10.85
2023-04-15T06:28:16.563Z,10.68
2023-04-15T06:30:44.394Z,10.60
2023-04-15T06:33:12.482Z,10.68
2023-04-15T06:35:40.584Z,10.70
2023-04-15T06:38:08.412Z,10.38
2023-04-15T06:40:36.291Z,9.98
2023-04-15T06:43:04.837Z,10.15
2023-04-15T06:45:34.100Z,10.15
2023-04-15T06:48:02.091Z,10.23
2023-04-15T06:50:29.917Z,10.07
2023-04-15T06:52:58.268Z,9.32
2023-04-15T06:55:26.157Z,9.48
2023-04-15T06:57:54.097Z,8.90
2023-04-15T07:00:22.342Z,8.68
2023-04-15T07:02:52.732Z,8.63
2023-04-15T07:05:20.758Z,8.25
2023-04-15T07:07:48.548Z,8.10
2023-04-15T07:10:16.627Z,8.77
2023-04-15T07:12:44.431Z,8.57
2023-04-15T07:15:12.696Z,8.63
2023-04-15T07:17:43.191Z,8.27
2023-04-15T07:20:13.975Z,7.57
2023-04-15T07:22:41.838Z,8.35
2023-04-15T07:25:10.365Z,8.07
2023-04-15T07:27:38.208Z,8.40
2023-04-15T07:30:07.550Z,7.80
2023-04-15T07:32:35.465Z,8.60
2023-04-15T07:35:03.779Z,8.35
2023-04-15T07:37:33.597Z,8.15
2023-04-15T07:40:01.895Z,8.70
2023-04-15T07:42:30.532Z,8.85
2023-04-15T07:44:58.553Z,8.95
2023-04-15T07:47:27.109Z,7.90
2023-04-15T07:49:54.951Z,8.73
2023-04-15T07:52:22.789Z,8.38
2023-04-15T07:54:51.961Z,9.13
2023-04-15T07:57:19.947Z,8.88
2023-04-15T07:59:47.730Z,9.48
2023-04-15T08:02:15.683Z,9.13
2023-04-15T08:04:44.222Z,8.73
2023-04-15T08:07:12.175Z,9.00
2023-04-15T08:09:40.024Z,9.48
2023-04-15T08:12:12.410Z,9.13
2023-04-15T08:14:40.301Z,9.07
2023-04-15T08:17:08.163Z,8.82
2023-04-15T08:19:35.997Z,9.13
2023-04-15T08:22:03.877Z,9.43
2023-04-15T08:24:32.390Z,9.50
2023-04-15T08:27:00.233Z,9.40
2023-04-15T08:29:29.428Z,8.55
2023-04-15T08:31:57.375Z,8.95
2023-04-15T08:34:25.539Z,9.43
2023-04-15T08:36:53.892Z,9.07
2023-04-15T08:39:21.704Z,10.13
2023-04-15T08:41:56.109Z,8.60
2023-04-15T08:44:25.496Z,9.38
2023-04-15T08:46:57.758Z,9.80
2023-04-15T08:49:29.059Z,9.57
2023-04-15T08:51:59.437Z,9.60
2023-04-15T08:54:28.116Z,10.07
2023-04-15T08:56:56.145Z,9.25
2023-04-15T08:59:24.938Z,9.30
2023-04-15T09:01:55.373Z,10.50
2023-04-15T09:04:23.279Z,9.68
2023-04-15T09:06:52.207Z,9.55
2023-04-15T09:09:20.242Z,9.32
2023-04-15T09:11:49.940Z,10.55
2023-04-15T09:14:18.319Z,9.70
2023-04-15T09:17:01.321Z,9.98
2023-04-15T09:19:30.246Z,10.07
2023-04-15T09:21:59.676Z,9.95
2023-04-15T09:24:37.396Z,10.50
2023-04-15T09:27:05.481Z,9.70
2023-04-15T09:29:33.363Z,9.70
2023-04-15T09:32:13.325Z,9.30
2023-04-15T09:34:41.154Z,9.45
2023-04-15T09:37:10.879Z,9.55
2023-04-15T09:39:50.052Z,10.15
2023-04-15T09:42:24.150Z,10.18
2023-04-15T09:44:52.508Z,10.15
2023-04-15T09:47:32.329Z,9.20
2023-04-15T09:50:01.888Z,10.13
2023-04-15T09:52:30.528Z,9.80
2023-04-15T09:54:59.653Z,8.98
2023-04-15T09:57:35.579Z,9.20
2023-04-15T10:00:04.011Z,9.40
2023-04-15T10:02:36.682Z,9.20
2023-04-15T10:05:06.096Z,9.40
2023-04-15T10:07:35.160Z,8.80
2023-04-15T10:10:05.387Z,9.38
2023-04-15T10:12:33.619Z,9.13
2023-04-15T10:15:05.931Z,9.18
2023-04-15T10:17:37.257Z,9.15
2023-04-15T10:20:07.098Z,9.32
2023-04-15T10:22:36.444Z,9.35
2023-04-15T10:25:04.456Z,9.60
2023-04-15T10:27:32.469Z,8.27
2023-04-15T10:30:03.020Z,8.73
2023-04-15T10:32:31.475Z,9.52
2023-04-15T10:35:01.318Z,8.95
2023-04-15T10:37:35.973Z,9.40
2023-04-15T10:40:26.082Z,9.32
2023-04-15T10:42:55.092Z,9.77
2023-04-15T10:45:23.335Z,9.07
2023-04-15T10:47:57.154Z,9.30
2023-04-15T10:50:29.822Z,10.30
2023-04-15T10:52:58.497Z,9.65
2023-04-15T10:55:28.034Z,8.82
2023-04-15T10:58:00.908Z,8.98
2023-04-15T11:00:31.084Z,8.98
2023-04-15T11:03:00.710Z,8.95
2023-04-15T11:05:53.921Z,9.00
2023-04-15T11:08:42.400Z,8.63
2023-04-15T11:11:10.263Z,9.10
2023-04-15T11:13:49.394Z,8.93
2023-04-15T11:16:17.526Z,8.73
2023-04-15T11:18:55.110Z,8.70
2023-04-15T11:21:27.057Z,8.70
2023-04-15T11:23:54.903Z,9.25
2023-04-15T11:26:28.118Z,8.45
2023-04-15T11:28:56.048Z,7.60
2023-04-15T11:31:24.467Z,8.35
2023-04-15T11:33:56.940Z,8.10
2023-04-15T11:36:28.335Z,8.70
2023-04-15T11:38:56.954Z,9.18
2023-04-15T11:41:25.162Z,8.77
2023-04-15T11:43:53.461Z,9.05
2023-04-15T11:46:22.697Z,9.80
2023-04-15T11:48:50.889Z,9.20
2023-04-15T11:51:20.857Z,8.93
2023-04-15T11:53:51.999Z,8.88
2023-04-15T11:56:21.075Z,9.52
2023-04-15T11:58:50.903Z,9.00
2023-04-15T12:01:19.137Z,8.38
2023-04-15T12:03:48.429Z,8.52
2023-04-15T12:06:19.331Z,8.95
2023-04-15T12:09:04.734Z,8.65
2023-04-15T12:11:37.717Z,9.77
2023-04-15T12:14:08.797Z,9.40
2023-04-15T12:16:49.022Z,9.07
2023-04-15T12:19:20.262Z,9.02
2023-04-15T12:21:49.454Z,9.57
2023-04-15T12:24:22.948Z,9.27
2023-04-15T12:26:52.800Z,9.02
2023-04-15T12:29:21.336Z,8.23
2023-04-15T12:31:51.713Z,8.30
2023-04-15T12:34:21.049Z,8.73
2023-04-15T12:36:48.970Z,8.98
2023-04-15T12:39:18.173Z,8.98
2023-04-15T12:41:46.162Z,8.65
2023-04-15T12:44:14.026Z,8.70
2023-04-15T12:46:41.984Z,7.72
2023-04-15T12:49:10.433Z,8.07
2023-04-15T12:51:38.402Z,7.93
2023-04-15T12:54:06.392Z,8.30
2023-04-15T12:56:35.850Z,7.82
2023-04-15T12:59:03.729Z,7.72
2023-04-15T13:01:31.640Z,7.30
2023-04-15T13:03:59.540Z,6.60
2023-04-15T13:06:29.171Z,7.32
2023-04-15T13:08:58.760Z,7.63
2023-04-15T13:11:27.254Z,7.80
2023-04-15T13:13:56.933Z,7.40
2023-04-15T13:16:25.104Z,8.15
2023-04-15T13:18:53.095Z,6.75
2023-04-15T13:21:21.271Z,7.85
2023-04-15T13:23:49.958Z,7.18
2023-04-15T13:26:18.321Z,10.27
2023-04-15T13:28:46.878Z,6.75
2023-04-15T13:31:16.267Z,6.63
2023-04-15T13:33:44.155Z,7.18
2023-04-15T13:36:12.016Z,7.47
2023-04-15T13:38:39.968Z,6.38
2023-04-15T13:41:07.834Z,6.32
2023-04-15T13:43:35.691Z,6.53
2023-04-15T13:46:03.898Z,5.97
2023-04-15T13:48:33.156Z,5.43
2023-04-15T13:51:01.108Z,5.75
2023-04-15T13:53:38.374Z,6.30
2023-04-15T13:56:07.628Z,5.97
2023-04-15T13:58:35.487Z,5.72
2023-04-15T14:01:05.465Z,6.15
2023-04-15T14:03:36.560Z,5.40
2023-04-15T14:06:05.747Z,6.00
2023-04-15T14:08:34.135Z,5.45
2023-04-15T14:11:02.243Z,5.82
2023-04-15T14:13:30.088Z,5.47
2023-04-15T14:15:58.259Z,6.20
2023-04-15T14:18:26.299Z,5.68
2023-04-15T14:20:55.581Z,5.47
2023-04-15T14:23:23.463Z,5.95
2023-04-15T14:25:51.740Z,6.13
2023-04-15T14:28:19.633Z,5.90
2023-04-15T14:30:47.661Z,5.93
2023-04-15T14:33:15.732Z,5.53
2023-04-15T14:35:43.751Z,5.68
2023-04-15T14:38:13.296Z,5.20
2023-04-15T14:40:42.845Z,5.47
2023-04-15T14:43:10.898Z,5.03
2023-04-15T14:45:40.679Z,5.40
2023-04-15T14:48:12.725Z,5.88
2023-04-15T14:50:41.266Z,5.68
2023-04-15T14:53:09.356Z,5.43
2023-04-15T14:55:38.773Z,5.82
2023-04-15T14:58:08.274Z,5.72
2023-04-15T15:00:39.314Z,5.30
2023-04-15T15:03:12.828Z,5.57
2023-04-15T15:05:41.246Z,5.78
2023-04-15T15:08:09.828Z,5.35
2023-04-15T15:10:49.518Z,5.93
2023-04-15T15:13:18.906Z,5.75
2023-04-15T15:15:49.247Z,5.63
2023-04-15T15:18:19.096Z,5.80
2023-04-15T15:20:47.509Z,6.60
2023-04-15T15:23:15.933Z,6.15
2023-04-15T15:25:45.505Z,6.38
2023-04-15T15:28:13.466Z,5.93
2023-04-15T15:30:41.319Z,6.65
2023-04-15T15:33:09.233Z,5.28
2023-04-15T15:35:37.328Z,5.80
2023-04-15T15:38:05.375Z,5.70
2023-04-15T15:40:33.180Z,6.88
2023-04-15T15:43:02.353Z,6.55
2023-04-15T15:45:30.310Z,6.28
2023-04-15T15:47:59.199Z,5.85
2023-04-15T15:50:27.353Z,5.80
2023-04-15T15:52:55.776Z,5.80
2023-04-15T15:55:25.244Z,6.53
2023-04-15T15:57:53.066Z,6.22
2023-04-15T16:00:23.160Z,6.38
2023-04-15T16:03:06.142Z,5.88
2023-04-15T16:05:34.952Z,6.43
2023-04-15T16:08:02.892Z,5.55
2023-04-15T16:10:30.730Z,5.38
2023-04-15T16:12:58.577Z,5.50
2023-04-15T16:15:27.786Z,5.10
2023-04-15T16:17:55.790Z,5.72
2023-04-15T16:20:23.719Z,5.28
2023-04-15T16:22:51.939Z,5.47
2023-04-15T16:25:19.877Z,5.63
2023-04-15T16:27:59.291Z,5.47
2023-04-15T16:30:32.642Z,5.32
2023-04-15T16:33:00.784Z,5.97
2023-04-15T16:35:28.639Z,5.63
2023-04-15T16:37:56.492Z,5.55
2023-04-15T16:40:24.916Z,4.82
2023-04-15T16:42:53.146Z,4.75
2023-04-15T16:45:20.991Z,4.65
2023-04-15T16:47:50.216Z,4.90
2023-04-15T16:50:18.434Z,5.18
2023-04-15T16:52:46.281Z,5.30
2023-04-15T16:55:14.124Z,4.70
2023-04-15T16:58:01.427Z,4.80
2023-04-15T17:00:29.803Z,4.82
2023-04-15T17:02:59.360Z,5.00
2023-04-15T17:05:27.952Z,5.10
2023-04-15T17:07:56.168Z,4.70
2023-04-15T17:10:24.412Z,4.20
2023-04-15T17:12:52.575Z,4.65
2023-04-15T17:15:20.938Z,4.53
2023-04-15T17:17:48.875Z,4.60
2023-04-15T17:20:18.390Z,4.40
2023-04-15T17:22:46.825Z,4.68
2023-04-15T17:25:15.160Z,4.63
2023-04-15T17:27:43.045Z,4.20
2023-04-15T17:30:11.679Z,4.55
2023-04-15T17:32:40.118Z,4.20
2023-04-15T17:35:09.128Z,4.47
2023-04-15T17:37:38.309Z,4.25
2023-04-15T17:40:08.801Z,4.45
2023-04-15T17:42:36.892Z,4.85
2023-04-15T17:45:05.077Z,4.72
2023-04-15T17:47:33.230Z,4.80
2023-04-15T17:50:01.135Z,4.35
2023-04-15T17:52:28.978Z,4.78
2023-04-15T17:54:58.272Z,4.80
2023-04-15T17:57:26.244Z,5.45
2023-04-15T17:59:54.137Z,5.53
2023-04-15T18:02:22.096Z,5.25
2023-04-15T18:04:50.407Z,5.38
2023-04-15T18:07:18.435Z,6.80
2023-04-15T18:09:46.420Z,6.20
2023-04-15T18:12:15.593Z,6.22
2023-04-15T18:14:43.674Z,6.03
2023-04-15T18:17:11.868Z,6.10
2023-04-15T18:19:39.715Z,6.20
2023-04-15T18:22:07.630Z,6.40
2023-04-15T18:24:35.681Z,6.18
2023-04-15T18:27:03.767Z,6.55
2023-04-15T18:29:33.017Z,6.43
2023-04-15T18:32:02.916Z,6.55
2023-04-15T18:34:31.013Z,6.45
2023-04-15T18:36:59.922Z,5.85
2023-04-15T18:39:28.045Z,5.70
2023-04-15T18:41:57.205Z,6.47
2023-04-15T18:44:25.134Z,6.30
2023-04-15T18:46:54.354Z,6.18
2023-04-15T18:49:22.157Z,6.22
2023-04-15T18:51:50.008Z,6.10
2023-04-15T18:54:17.853Z,6.43
2023-04-15T18:56:45.767Z,6.25
2023-04-15T18:59:29.802Z,6.13
2023-04-15T19:02:00.315Z,5.55
2023-04-15T19:04:29.557Z,6.03
2023-04-15T19:06:58.816Z,6.35
2023-04-15T19:09:26.816Z,6.70
2023-04-15T19:11:54.682Z,6.10
2023-04-15T19:14:22.780Z,6.03
2023-04-15T19:16:50.870Z,6.15
2023-04-15T19:19:20.272Z,6.57
2023-04-15T19:21:49.972Z,6.25
2023-04-15T19:24:18.700Z,6.05
2023-04-15T19:26:49.450Z,6.32
2023-04-15T19:29:17.599Z,6.65
2023-04-15T19:31:45.471Z,6.82
2023-04-15T19:34:13.300Z,6.32
2023-04-15T19:36:42.723Z,6.90
2023-04-15T19:39:10.861Z,7.45
2023-04-15T19:41:39.332Z,8.23
2023-04-15T19:44:07.458Z,8.05
2023-04-15T19:46:35.514Z,8.13
2023-04-15T19:49:03.689Z,8.98
2023-04-15T19:51:31.871Z,10.05
2023-04-15T19:54:01.219Z,10.15
2023-04-15T19:56:29.951Z,10.55
2023-04-15T19:58:59.705Z,11.05
2023-04-15T20:01:28.649Z,11.18
2023-04-15T20:03:56.879Z,11.85
2023-04-15T20:06:24.943Z,12.18
2023-04-15T20:08:52.841Z,11.00
2023-04-15T20:12:05.196Z,11.82
2023-04-15T20:14:17.470Z,11.75
2023-04-15T20:16:45.310Z,11.68
2023-04-15T20:19:13.854Z,10.55
2023-04-15T20:21:41.679Z,10.73
2023-04-15T20:24:09.625Z,11.52
2023-04-15T20:26:38.805Z,11.82
2023-04-15T20:29:06.768Z,11.20
2023-04-15T20:31:35.001Z,10.45
2023-04-15T20:34:02.879Z,11.55
2023-04-15T20:36:31.671Z,11.52
2023-04-15T20:38:59.576Z,12.00
2023-04-15T20:41:27.397Z,11.25
2023-04-15T20:43:56.576Z,11.55
2023-04-15T20:46:26.596Z,12.23
2023-04-15T20:48:55.662Z,12.43
2023-04-15T20:51:23.643Z,13.07
2023-04-15T20:53:51.486Z,11.38
2023-04-15T20:56:19.454Z,11.50
2023-04-15T20:58:47.264Z,11.77
2023-04-15T21:01:16.507Z,12.07
2023-04-15T21:03:44.409Z,11.40
2023-04-15T21:06:12.373Z,11.82
2023-04-15T21:08:40.153Z,12.10
2023-04-15T21:11:08.094Z,12.18
2023-04-15T21:13:35.934Z,11.10
2023-04-15T21:16:03.792Z,12.70
2023-04-15T21:18:33.013Z,12.10
2023-04-15T21:21:02.314Z,12.65
2023-04-15T21:23:30.736Z,12.07
2023-04-15T21:25:59.775Z,11.75
2023-04-15T21:28:28.324Z,11.70
2023-04-15T21:30:56.636Z,11.68
2023-04-15T21:33:25.572Z,12.63
2023-04-15T21:35:55.406Z,12.73
2023-04-15T21:38:23.596Z,11.90
2023-04-15T21:40:51.763Z,12.55
2023-04-15T21:43:21.496Z,11.63
2023-04-15T21:46:21.050Z,10.90
2023-04-15T21:48:37.392Z,11.75
2023-04-15T21:51:06.871Z,11.32
2023-04-15T21:53:34.899Z,12.27
2023-04-15T21:56:02.872Z,11.45
2023-04-15T21:58:30.743Z,11.88
2023-04-15T22:01:00.337Z,12.45
2023-04-15T22:03:30.557Z,12.10
2023-04-15T22:05:58.728Z,11.32
2023-04-15T22:08:27.924Z,12.35
2023-04-15T22:10:56.165Z,11.85
2023-04-15T22:13:23.963Z,11.23
2023-04-15T22:15:51.775Z,11.77
2023-04-15T22:18:19.585Z,11.45
2023-04-15T22:20:47.433Z,11.85
2023-04-15T22:23:17.522Z,12.38
2023-04-15T22:25:47.309Z,11.20
2023-04-15T22:28:15.153Z,11.48
2023-04-15T22:30:43.515Z,11.23
2023-04-15T22:33:11.551Z,11.63
2023-04-15T22:35:39.614Z,12.00
2023-04-15T22:38:07.433Z,11.70
2023-04-15T22:40:35.381Z,11.73
2023-04-15T22:43:04.584Z,12.13
2023-04-15T22:45:32.397Z,11.82
2023-04-15T22:48:00.544Z,11.60
2023-04-15T22:50:28.432Z,12.18
2023-04-15T22:52:56.252Z,12.82
2023-04-15T22:55:24.367Z,12.18
2023-04-15T22:57:52.762Z,12.45
2023-04-15T23:00:22.225Z,13.05
2023-04-15T23:02:50.695Z,13.13
2023-04-15T23:05:18.698Z,13.68
2023-04-15T23:07:46.569Z,13.60
2023-04-15T23:10:14.418Z,13.38
2023-04-15T23:12:42.486Z,13.55
2023-04-15T23:15:11.010Z,14.10
2023-04-15T23:17:40.271Z,13.77
2023-04-15T23:20:08.693Z,14.45
2023-04-15T23:22:37.643Z,14.10
2023-04-15T23:25:06.602Z,14.43
2023-04-15T23:27:34.559Z,14.77
2023-04-15T23:30:02.583Z,14.40
2023-04-15T23:32:30.616Z,14.20
2023-04-15T23:34:59.945Z,14.90
2023-04-15T23:37:27.744Z,14.48
2023-04-15T23:39:56.374Z,14.73
2023-04-15T23:42:24.233Z,14.43
2023-04-15T23:44:52.267Z,14.55
2023-04-15T23:47:20.168Z,14.50
2023-04-15T23:49:48.063Z,15.48
2023-04-15T23:52:17.329Z,14.77
2023-04-15T23:54:45.182Z,15.18
2023-04-15T23:57:13.060Z,14.75
2023-04-15T23:59:40.898Z,13.75
